Time;durP1;ratioP1;P1;durP2;ratioP2;P2;SDS_P1;SDS_P2;PMS_P1;PMS_P2;Temp;Humidity;BMP_temperature;BMP_pressure;BME280_temperature;BME280_humidity;BME280_pressure;Samples;Min_cycle;Max_cycle;Signal;HPM_P1;HPM_P2
2023/08/12 00:02:15;;;;;;;11.23;7.30;;;23.40;99.90;;;;;;5098783;28;20416;-72
2023/08/12 00:04:42;;;;;;;11.75;6.95;;;23.30;99.90;;;;;;5100700;27;20408;-72
2023/08/12 00:07:08;;;;;;;11.20;7.05;;;23.40;99.90;;;;;;5102321;28;20491;-72
2023/08/12 00:09:34;;;;;;;12.88;7.10;;;23.30;99.90;;;;;;5101090;28;20441;-73
2023/08/12 00:12:01;;;;;;;11.30;7.07;;;23.30;99.90;;;;;;5091516;28;20494;-73
2023/08/12 00:14:27;;;;;;;9.70;6.82;;;23.30;99.90;;;;;;5100628;27;20413;-72
2023/08/12 00:16:53;;;;;;;13.70;7.35;;;23.30;99.90;;;;;;5097304;28;20406;-72
2023/08/12 00:19:19;;;;;;;11.20;7.13;;;23.40;99.90;;;;;;5127016;27;20758;-72
2023/08/12 00:21:47;;;;;;;11.95;7.40;;;23.30;99.90;;;;;;5102440;28;21033;-72
2023/08/12 00:24:13;;;;;;;10.75;7.10;;;23.30;99.90;;;;;;5096096;27;21087;-72
2023/08/12 00:26:39;;;;;;;8.73;6.57;;;23.30;99.90;;;;;;5096084;28;20407;-72
2023/08/12 00:29:06;;;;;;;11.20;7.07;;;23.40;99.90;;;;;;5099342;28;20877;-72
2023/08/12 00:31:32;;;;;;;11.77;6.85;;;23.30;99.90;;;;;;5101213;28;20503;-72
2023/08/12 00:33:58;;;;;;;10.70;6.82;;;23.30;99.90;;;;;;5127835;27;20496;-72
2023/08/12 00:36:24;;;;;;;11.18;6.68;;;23.30;99.90;;;;;;5109394;27;20847;-72
2023/08/12 00:38:51;;;;;;;10.20;6.60;;;23.30;99.90;;;;;;5102450;28;20441;-73
2023/08/12 00:41:17;;;;;;;11.43;7.20;;;23.30;99.90;;;;;;5094875;28;20433;-72
2023/08/12 00:43:44;;;;;;;11.45;6.85;;;23.30;99.90;;;;;;5093660;27;20412;-72
2023/08/12 00:46:11;;;;;;;11.50;7.20;;;23.30;99.90;;;;;;5074585;28;20421;-73
2023/08/12 00:48:37;;;;;;;10.85;7.43;;;23.20;99.90;;;;;;5096800;27;20511;-72
2023/08/12 00:51:03;;;;;;;11.77;7.10;;;23.20;99.90;;;;;;5100595;27;20500;-72
2023/08/12 00:53:30;;;;;;;8.93;6.85;;;23.20;99.90;;;;;;5098684;28;20405;-73
2023/08/12 00:55:57;;;;;;;9.75;7.10;;;23.20;99.90;;;;;;5079400;28;20967;-75
2023/08/12 00:58:25;;;;;;;11.45;6.78;;;23.20;99.90;;;;;;5095391;27;20427;-72
2023/08/12 01:00:52;;;;;;;10.73;7.30;;;23.20;99.90;;;;;;5100017;27;20414;-72
2023/08/12 01:03:19;;;;;;;8.88;6.82;;;23.20;99.90;;;;;;5095335;27;20414;-71
2023/08/12 01:05:47;;;;;;;11.48;6.90;;;23.10;99.90;;;;;;5095947;28;20499;-72
2023/08/12 01:08:17;;;;;;;12.20;7.60;;;23.10;99.90;;;;;;5097632;28;20429;-72
2023/08/12 01:10:56;;;;;;;10.05;6.90;;;23.10;99.90;;;;;;5102251;28;20421;-72
2023/08/12 01:14:00;;;;;;;10.20;7.00;;;23.10;99.90;;;;;;5095770;27;20405;-72
2023/08/12 01:16:33;;;;;;;11.73;7.25;;;23.10;99.90;;;;;;5132475;27;20400;-72
2023/08/12 01:19:02;;;;;;;10.77;6.72;;;23.10;99.90;;;;;;5095541;28;20459;-73
2023/08/12 01:21:32;;;;;;;10.15;7.50;;;23.10;99.90;;;;;;5131359;27;20436;-72
2023/08/12 01:23:59;;;;;;;9.85;7.15;;;23.10;99.90;;;;;;5101257;27;20522;-72
2023/08/12 01:26:25;;;;;;;12.68;7.45;;;23.10;99.90;;;;;;5100147;28;21024;-72
2023/08/12 01:28:51;;;;;;;13.50;7.50;;;23.10;99.90;;;;;;5094341;28;20482;-72
2023/08/12 01:32:05;;;;;;;11.05;7.32;;;23.10;99.90;;;;;;5096090;27;20415;-72
2023/08/12 01:34:52;;;;;;;9.90;7.05;;;23.10;99.90;;;;;;5094158;27;20450;-72
2023/08/12 01:37:28;;;;;;;10.02;7.05;;;23.10;99.90;;;;;;5117410;27;20412;-72
2023/08/12 01:39:58;;;;;;;10.93;7.00;;;23.10;99.90;;;;;;5102326;27;20499;-72
2023/08/12 01:42:25;;;;;;;11.82;7.57;;;23.10;99.90;;;;;;5102623;28;20874;-72
2023/08/12 01:44:52;;;;;;;10.38;7.30;;;23.10;99.90;;;;;;5098048;28;20434;-72
2023/08/12 01:47:18;;;;;;;9.13;7.30;;;23.10;99.90;;;;;;5079941;28;20495;-72
2023/08/12 01:49:45;;;;;;;10.68;7.70;;;23.10;99.90;;;;;;5095941;27;20450;-72
2023/08/12 01:52:11;;;;;;;9.30;7.13;;;23.10;99.90;;;;;;5098794;28;20717;-72
2023/08/12 01:54:37;;;;;;;11.60;7.53;;;23.10;99.90;;;;;;5097748;28;20445;-72
2023/08/12 01:57:05;;;;;;;11.40;7.50;;;23.10;99.90;;;;;;5094742;28;20882;-72
2023/08/12 01:59:36;;;;;;;10.30;7.43;;;23.10;99.90;;;;;;5099767;28;20407;-72
2023/08/12 02:02:04;;;;;;;9.45;7.60;;;23.10;99.90;;;;;;5098099;27;20794;-72
2023/08/12 02:04:31;;;;;;;10.35;7.25;;;23.10;99.90;;;;;;5096693;27;20428;-72
2023/08/12 02:06:57;;;;;;;12.15;7.50;;;23.00;99.90;;;;;;5077037;28;20412;-72
2023/08/12 02:09:23;;;;;;;11.52;7.00;;;23.10;99.90;;;;;;5082291;27;20515;-72
2023/08/12 02:11:50;;;;;;;11.45;7.68;;;23.00;99.90;;;;;;5100181;27;20774;-72
2023/08/12 02:14:16;;;;;;;12.48;7.25;;;23.00;99.90;;;;;;5096028;27;20441;-72
2023/08/12 02:16:44;;;;;;;8.13;6.93;;;22.90;99.90;;;;;;5101640;27;20755;-72
2023/08/12 02:19:10;;;;;;;10.60;7.45;;;22.80;99.90;;;;;;5093616;28;20398;-72
2023/08/12 02:21:37;;;;;;;10.65;6.50;;;22.70;99.90;;;;;;5098192;27;20754;-72
2023/08/12 02:24:03;;;;;;;13.35;7.40;;;22.60;99.90;;;;;;5099894;28;20416;-73
2023/08/12 02:26:30;;;;;;;11.55;7.50;;;22.70;99.90;;;;;;5078117;28;20417;-73
2023/08/12 02:28:57;;;;;;;10.55;6.90;;;22.70;99.90;;;;;;5096209;28;20448;-72
2023/08/12 02:31:23;;;;;;;9.88;7.32;;;22.70;99.90;;;;;;5102493;28;20479;-73
2023/08/12 02:33:50;;;;;;;12.05;7.38;;;22.70;99.90;;;;;;5094832;28;20404;-72
2023/08/12 02:36:16;;;;;;;9.07;7.25;;;22.70;99.90;;;;;;5092003;28;20460;-72
2023/08/12 02:38:43;;;;;;;10.10;7.22;;;22.70;99.90;;;;;;5098482;28;20767;-72
2023/08/12 02:41:09;;;;;;;10.43;7.75;;;22.80;99.90;;;;;;5098443;28;20415;-72
2023/08/12 02:43:35;;;;;;;12.95;7.43;;;22.70;99.90;;;;;;5090026;28;20417;-72
2023/08/12 02:46:02;;;;;;;11.18;6.97;;;22.80;99.90;;;;;;5097035;28;20412;-73
2023/08/12 02:48:28;;;;;;;14.67;7.70;;;22.70;99.90;;;;;;5118193;27;20992;-72
2023/08/12 02:50:54;;;;;;;12.00;7.90;;;22.70;99.90;;;;;;5093306;28;20438;-72
2023/08/12 02:53:20;;;;;;;11.32;7.78;;;22.70;99.90;;;;;;5098773;28;20425;-72
2023/08/12 02:55:46;;;;;;;11.07;7.93;;;22.70;99.90;;;;;;5094760;28;20499;-72
2023/08/12 02:58:13;;;;;;;10.82;8.05;;;22.70;99.90;;;;;;5092385;28;20792;-72
2023/08/12 03:00:45;;;;;;;9.35;7.50;;;22.60;99.90;;;;;;5103472;28;20895;-72
2023/08/12 03:03:11;;;;;;;12.27;7.53;;;22.60;99.90;;;;;;5125327;27;20424;-72
2023/08/12 03:05:38;;;;;;;10.60;7.50;;;22.60;99.90;;;;;;5095713;28;20805;-72
2023/08/12 03:08:05;;;;;;;11.55;7.38;;;22.60;99.90;;;;;;5102485;28;20928;-72
2023/08/12 03:10:34;;;;;;;9.48;7.70;;;22.60;99.90;;;;;;5131203;27;20398;-73
2023/08/12 03:13:00;;;;;;;11.23;7.87;;;22.60;99.90;;;;;;5104741;27;20408;-73
2023/08/12 03:15:26;;;;;;;12.90;8.20;;;22.60;99.90;;;;;;5097615;27;20544;-72
2023/08/12 03:17:52;;;;;;;11.13;7.45;;;22.60;99.90;;;;;;5096731;28;20412;-72
2023/08/12 03:20:19;;;;;;;11.07;7.57;;;22.50;99.90;;;;;;5097073;27;20408;-72
2023/08/12 03:22:45;;;;;;;9.18;7.55;;;22.40;99.90;;;;;;5100458;27;20412;-72
2023/08/12 03:25:11;;;;;;;10.88;7.07;;;22.30;99.90;;;;;;5107215;27;20411;-72
2023/08/12 03:27:37;;;;;;;10.98;7.53;;;22.20;99.90;;;;;;5101608;27;20457;-73
2023/08/12 03:30:04;;;;;;;12.02;7.53;;;22.20;99.90;;;;;;5096073;27;20414;-72
2023/08/12 03:32:30;;;;;;;11.70;7.78;;;22.20;99.90;;;;;;5101136;28;20447;-73
2023/08/12 03:34:56;;;;;;;9.40;7.32;;;22.20;99.90;;;;;;5085884;28;20457;-72
2023/08/12 03:37:23;;;;;;;8.70;7.40;;;22.20;99.90;;;;;;5100449;28;20404;-72
2023/08/12 03:39:49;;;;;;;10.95;7.70;;;22.20;99.90;;;;;;5101644;27;20419;-72
2023/08/12 03:42:16;;;;;;;10.80;7.53;;;22.20;99.90;;;;;;5100785;27;20400;-72
2023/08/12 03:44:44;;;;;;;13.45;8.57;;;22.30;99.90;;;;;;5083352;28;20477;-72
2023/08/12 03:47:10;;;;;;;12.98;8.63;;;22.30;99.90;;;;;;5100093;27;20422;-72
2023/08/12 03:49:37;;;;;;;13.65;8.80;;;22.40;99.90;;;;;;5101466;28;20414;-72
2023/08/12 03:52:06;;;;;;;14.27;8.70;;;22.40;99.90;;;;;;5092269;28;20415;-72
2023/08/12 03:54:34;;;;;;;14.30;9.13;;;22.40;99.90;;;;;;5098865;28;20910;-72
2023/08/12 03:57:00;;;;;;;15.40;9.43;;;22.40;99.90;;;;;;5098785;27;20419;-72
2023/08/12 03:59:26;;;;;;;14.45;8.75;;;22.40;99.90;;;;;;5092634;28;20773;-72
2023/08/12 04:01:52;;;;;;;17.55;9.57;;;22.40;99.90;;;;;;5117413;27;20417;-72
2023/08/12 04:04:18;;;;;;;12.43;8.90;;;22.30;99.90;;;;;;5098189;27;20424;-72
2023/08/12 04:06:47;;;;;;;11.98;8.95;;;22.40;99.90;;;;;;5086783;28;20492;-72
2023/08/12 04:09:15;;;;;;;12.50;8.20;;;22.40;99.90;;;;;;5101422;28;20408;-72
2023/08/12 04:11:42;;;;;;;11.30;8.30;;;22.40;99.90;;;;;;5102803;27;20839;-72
2023/08/12 04:14:08;;;;;;;14.70;8.80;;;22.40;99.90;;;;;;5092899;28;20403;-72
2023/08/12 04:16:34;;;;;;;14.98;8.95;;;22.50;99.90;;;;;;5098601;27;20446;-72
2023/08/12 04:19:00;;;;;;;11.07;7.90;;;22.50;99.90;;;;;;5097954;28;20472;-72
2023/08/12 04:21:27;;;;;;;13.77;8.32;;;22.50;99.90;;;;;;5096834;27;20502;-72
2023/08/12 04:23:53;;;;;;;14.05;8.45;;;22.50;99.90;;;;;;5080526;28;20496;-72
2023/08/12 04:26:19;;;;;;;13.23;7.95;;;22.50;99.90;;;;;;5116081;27;20463;-72
2023/08/12 04:28:45;;;;;;;12.00;8.05;;;22.50;99.90;;;;;;5104580;28;21371;-72
2023/08/12 04:31:16;;;;;;;9.75;8.15;;;22.50;99.90;;;;;;5099187;28;20760;-73
2023/08/12 04:33:42;;;;;;;10.93;8.57;;;22.50;99.90;;;;;;5098535;28;20400;-72
2023/08/12 04:36:08;;;;;;;13.88;9.20;;;22.60;99.90;;;;;;5104375;27;20458;-72
2023/08/12 04:38:35;;;;;;;16.42;10.00;;;22.60;99.90;;;;;;5087071;28;20763;-72
2023/08/12 04:41:02;;;;;;;14.52;9.27;;;22.70;99.90;;;;;;5101531;28;20438;-72
2023/08/12 04:43:28;;;;;;;16.38;9.70;;;22.70;99.90;;;;;;5101004;28;20397;-72
2023/08/12 04:45:54;;;;;;;13.82;9.38;;;22.80;99.90;;;;;;5084706;28;20400;-72
2023/08/12 04:48:20;;;;;;;14.93;8.90;;;22.80;99.90;;;;;;5102787;27;20396;-71
2023/08/12 04:50:47;;;;;;;14.77;9.10;;;22.90;99.90;;;;;;5100807;28;20420;-72
2023/08/12 04:53:13;;;;;;;14.90;9.63;;;22.90;99.90;;;;;;5083085;28;20404;-72
2023/08/12 04:55:42;;;;;;;12.13;9.13;;;23.00;99.90;;;;;;5131882;27;21321;-71
2023/08/12 04:58:08;;;;;;;13.20;9.00;;;23.10;99.90;;;;;;5106761;27;20411;-72
2023/08/12 05:00:35;;;;;;;11.77;9.13;;;23.10;99.90;;;;;;5090991;28;21166;-72
2023/08/12 05:03:02;;;;;;;13.65;9.13;;;23.10;99.90;;;;;;5117942;27;20409;-72
2023/08/12 05:05:28;;;;;;;16.47;9.33;;;23.20;99.90;;;;;;5102946;28;20406;-72
2023/08/12 05:07:55;;;;;;;11.90;9.27;;;23.20;99.90;;;;;;5088804;28;20501;-72
2023/08/12 05:10:21;;;;;;;13.38;9.18;;;23.30;99.90;;;;;;5103795;28;20932;-72
2023/08/12 05:12:50;;;;;;;11.68;8.82;;;23.30;99.90;;;;;;5101812;27;20493;-72
2023/08/12 05:15:16;;;;;;;11.40;9.00;;;23.40;99.90;;;;;;5094413;28;20755;-72
2023/08/12 05:17:42;;;;;;;11.45;8.68;;;23.40;99.90;;;;;;5100718;27;20495;-72
2023/08/12 05:20:09;;;;;;;16.33;9.48;;;23.50;99.90;;;;;;5098192;28;20456;-72
2023/08/12 05:22:35;;;;;;;12.75;8.90;;;23.50;99.90;;;;;;5094361;28;20408;-72
2023/08/12 05:25:01;;;;;;;11.50;8.57;;;23.60;99.90;;;;;;5127791;27;20471;-72
2023/08/12 05:27:27;;;;;;;12.27;8.60;;;23.60;99.90;;;;;;5098946;28;20396;-72
2023/08/12 05:29:56;;;;;;;13.65;8.70;;;23.70;99.90;;;;;;5095230;28;20491;-72
2023/08/12 05:32:22;;;;;;;12.73;8.40;;;23.70;99.90;;;;;;5096917;27;20913;-72
2023/08/12 05:34:53;;;;;;;12.63;8.10;;;23.80;99.90;;;;;;5097982;28;20407;-72
2023/08/12 05:37:19;;;;;;;9.90;8.23;;;23.80;99.90;;;;;;5099593;27;20406;-72
2023/08/12 05:39:46;;;;;;;13.55;8.20;;;23.90;99.90;;;;;;5094626;28;20412;-72
2023/08/12 05:42:12;;;;;;;10.77;7.70;;;23.90;99.90;;;;;;5096949;27;20493;-72
2023/08/12 05:44:42;;;;;;;11.90;8.27;;;24.00;99.90;;;;;;5082924;28;20926;-72
2023/08/12 05:47:08;;;;;;;14.90;8.30;;;24.00;99.90;;;;;;5080820;28;20404;-73
2023/08/12 05:49:34;;;;;;;13.13;8.30;;;24.00;99.90;;;;;;5100537;27;20405;-72
2023/08/12 05:52:01;;;;;;;13.48;8.48;;;24.10;99.90;;;;;;5100301;27;20907;-72
2023/08/12 05:54:27;;;;;;;13.23;8.00;;;24.10;99.90;;;;;;5086736;28;20404;-72
2023/08/12 05:56:53;;;;;;;17.00;8.30;;;24.20;99.90;;;;;;5097062;28;20412;-72
2023/08/12 05:59:19;;;;;;;12.57;7.88;;;24.20;99.90;;;;;;5089565;28;21021;-73
2023/08/12 06:01:45;;;;;;;12.38;7.88;;;24.30;99.90;;;;;;5093872;28;20407;-72
2023/08/12 06:04:12;;;;;;;13.27;8.07;;;24.30;99.90;;;;;;5104840;27;20458;-72
2023/08/12 06:06:38;;;;;;;12.85;7.65;;;24.40;99.90;;;;;;5099195;28;20739;-72
2023/08/12 06:09:04;;;;;;;12.15;7.50;;;24.50;99.90;;;;;;5089292;28;20548;-73
2023/08/12 06:11:31;;;;;;;12.80;7.35;;;24.50;99.90;;;;;;5100305;27;20763;-72
2023/08/12 06:13:57;;;;;;;13.10;7.97;;;24.50;99.90;;;;;;5101453;27;20405;-72
2023/08/12 06:16:23;;;;;;;11.57;7.70;;;24.60;99.90;;;;;;5095037;28;20753;-72
2023/08/12 06:18:49;;;;;;;10.33;7.30;;;24.70;99.90;;;;;;5100529;28;20408;-72
2023/08/12 06:21:16;;;;;;;9.50;6.83;;;24.70;99.90;;;;;;5098696;28;20480;-72
2023/08/12 06:23:42;;;;;;;10.27;6.80;;;24.70;99.90;;;;;;5092742;28;20429;-72
2023/08/12 06:26:09;;;;;;;11.60;7.20;;;24.70;99.90;;;;;;5094052;28;20406;-72
2023/08/12 06:28:35;;;;;;;11.27;7.03;;;24.80;99.90;;;;;;5115344;27;20710;-73
2023/08/12 06:31:02;;;;;;;10.37;6.53;;;24.90;99.90;;;;;;5112395;27;20400;-72
2023/08/12 06:33:28;;;;;;;9.18;6.45;;;24.90;99.90;;;;;;5097640;28;20408;-72
2023/08/12 06:35:54;;;;;;;10.93;6.93;;;24.90;99.90;;;;;;5085996;28;20439;-72
2023/08/12 06:38:21;;;;;;;8.73;6.55;;;25.00;99.90;;;;;;5096551;28;20398;-72
2023/08/12 06:40:48;;;;;;;9.87;6.47;;;25.10;99.90;;;;;;5097614;28;20481;-72
2023/08/12 06:43:14;;;;;;;9.57;6.25;;;25.10;99.90;;;;;;5124629;27;20554;-72
2023/08/12 06:45:41;;;;;;;10.27;6.18;;;25.10;99.90;;;;;;5094654;27;20415;-72
2023/08/12 06:48:07;;;;;;;10.60;5.85;;;25.10;99.90;;;;;;5097720;27;20914;-72
2023/08/12 06:50:33;;;;;;;8.85;6.10;;;25.20;99.90;;;;;;5103318;28;20537;-72
2023/08/12 06:53:00;;;;;;;11.10;5.93;;;25.30;99.90;;;;;;5087836;28;20409;-72
2023/08/12 06:55:26;;;;;;;10.13;6.00;;;25.30;99.90;;;;;;5101127;27;20413;-72
2023/08/12 06:57:55;;;;;;;11.73;6.00;;;25.40;99.90;;;;;;5103799;28;21220;-72
2023/08/12 07:00:22;;;;;;;7.60;5.47;;;25.40;99.90;;;;;;5098269;27;20495;-72
2023/08/12 07:02:48;;;;;;;8.60;5.80;;;25.50;99.90;;;;;;5095135;27;20439;-72
2023/08/12 07:05:14;;;;;;;9.23;5.85;;;25.50;99.90;;;;;;5099156;28;20397;-72
2023/08/12 07:07:41;;;;;;;9.32;5.18;;;25.60;99.90;;;;;;5103250;28;20465;-72
2023/08/12 07:10:08;;;;;;;10.18;5.70;;;25.60;99.90;;;;;;5100915;28;20404;-72
2023/08/12 07:12:35;;;;;;;9.73;5.07;;;25.70;99.90;;;;;;5100105;27;21091;-72
2023/08/12 07:15:01;;;;;;;9.27;5.63;;;25.70;99.90;;;;;;5098562;28;20408;-73
2023/08/12 07:17:27;;;;;;;9.68;5.68;;;25.80;99.90;;;;;;5092745;28;20400;-72
2023/08/12 07:19:53;;;;;;;9.25;5.60;;;25.90;99.90;;;;;;5112228;27;20418;-72
2023/08/12 07:22:20;;;;;;;7.47;5.40;;;26.00;99.90;;;;;;5101851;28;20406;-72
2023/08/12 07:24:46;;;;;;;9.37;5.40;;;26.10;99.90;;;;;;5098785;28;20478;-71
2023/08/12 07:27:13;;;;;;;8.30;5.72;;;26.20;99.90;;;;;;5098677;27;20411;-72
2023/08/12 07:29:39;;;;;;;7.30;5.22;;;26.20;99.90;;;;;;5096673;27;20413;-72
2023/08/12 07:32:05;;;;;;;10.38;5.50;;;26.30;99.90;;;;;;5094105;28;20402;-72
2023/08/12 07:34:32;;;;;;;7.47;5.00;;;26.40;99.90;;;;;;5133973;27;20396;-72
2023/08/12 07:36:58;;;;;;;7.53;5.32;;;26.40;99.90;;;;;;5099975;27;21131;-73
2023/08/12 07:39:24;;;;;;;6.45;5.10;;;26.60;99.90;;;;;;5092748;28;20505;-72
2023/08/12 07:41:50;;;;;;;9.95;5.47;;;26.60;99.90;;;;;;5102442;28;20423;-72
2023/08/12 07:44:17;;;;;;;8.10;4.90;;;26.70;99.90;;;;;;5084732;28;20561;-72
2023/08/12 07:46:45;;;;;;;6.28;4.70;;;26.70;99.90;;;;;;5095289;28;21190;-72
2023/08/12 07:49:11;;;;;;;5.88;4.90;;;26.80;99.90;;;;;;5097689;28;20479;-72
2023/08/12 07:51:38;;;;;;;7.40;4.75;;;26.90;99.90;;;;;;5093199;28;20427;-72
2023/08/12 07:54:04;;;;;;;7.50;4.40;;;27.00;99.90;;;;;;5096017;28;20416;-73
2023/08/12 07:56:31;;;;;;;11.95;5.40;;;27.00;99.90;;;;;;5098948;27;20416;-72
2023/08/12 07:59:00;;;;;;;9.70;5.63;;;27.10;99.90;;;;;;5101525;27;20412;-72
2023/08/12 08:01:27;;;;;;;9.57;5.40;;;27.30;99.90;;;;;;5091832;27;21014;-73
2023/08/12 08:03:53;;;;;;;8.90;5.65;;;27.40;99.90;;;;;;5083418;27;20867;-73
2023/08/12 08:06:20;;;;;;;8.65;5.53;;;27.50;99.90;;;;;;5097361;27;20504;-72
2023/08/12 08:08:46;;;;;;;8.40;5.47;;;27.70;99.90;;;;;;5079576;27;21091;-72
2023/08/12 08:11:13;;;;;;;8.80;5.55;;;27.80;99.90;;;;;;5092000;27;20412;-73
2023/08/12 08:13:39;;;;;;;9.68;5.50;;;27.80;99.90;;;;;;5101400;27;20749;-73
2023/08/12 08:16:06;;;;;;;9.93;5.90;;;27.90;99.90;;;;;;5096348;27;20417;-72
2023/08/12 08:18:32;;;;;;;9.53;5.77;;;28.00;99.90;;;;;;5102273;27;20753;-73
2023/08/12 08:20:58;;;;;;;10.02;5.80;;;28.00;99.90;;;;;;5068235;27;20432;-72
2023/08/12 08:23:26;;;;;;;9.20;6.07;;;28.10;99.90;;;;;;5064950;28;20423;-73
2023/08/12 08:25:52;;;;;;;11.07;5.72;;;28.20;99.90;;;;;;5084525;27;20457;-72
2023/08/12 08:28:18;;;;;;;11.05;5.90;;;28.30;99.90;;;;;;5090457;28;20416;-73
2023/08/12 08:30:45;;;;;;;9.27;5.53;;;28.40;99.90;;;;;;5080521;28;20411;-73
2023/08/12 08:33:12;;;;;;;10.45;5.82;;;28.40;99.90;;;;;;5091053;28;20414;-73
2023/08/12 08:35:38;;;;;;;8.60;5.40;;;28.50;99.90;;;;;;5093620;27;20491;-73
2023/08/12 08:38:05;;;;;;;8.30;5.57;;;28.50;99.90;;;;;;5094949;28;20408;-72
2023/08/12 08:40:34;;;;;;;9.65;6.00;;;28.60;99.90;;;;;;5094839;28;21873;-73
2023/08/12 08:43:06;;;;;;;11.57;6.35;;;28.70;99.90;;;;;;5098304;28;21020;-72
2023/08/12 08:45:33;;;;;;;9.00;5.77;;;28.80;99.90;;;;;;5091186;28;20468;-73
2023/08/12 08:48:02;;;;;;;10.38;6.47;;;28.90;99.90;;;;;;5088752;27;20960;-73
2023/08/12 08:50:32;;;;;;;10.25;5.93;;;29.00;99.90;;;;;;5072776;28;20396;-73
2023/08/12 08:53:00;;;;;;;9.25;5.97;;;29.10;99.90;;;;;;5080538;28;20431;-73
2023/08/12 08:55:27;;;;;;;9.43;5.80;;;29.20;99.90;;;;;;5099974;27;20406;-73
2023/08/12 08:57:56;;;;;;;9.68;6.10;;;29.20;99.90;;;;;;5093842;28;20443;-73
2023/08/12 09:00:23;;;;;;;9.52;5.90;;;29.30;99.90;;;;;;5093805;27;20416;-72
2023/08/12 09:02:50;;;;;;;10.73;6.20;;;29.40;99.90;;;;;;5094453;28;20455;-73
2023/08/12 09:05:20;;;;;;;11.77;6.25;;;29.40;99.90;;;;;;5095251;27;20392;-73
2023/08/12 09:07:48;;;;;;;8.73;5.80;;;29.60;99.90;;;;;;5097842;27;20404;-72
2023/08/12 09:10:20;;;;;;;12.70;6.10;;;29.60;99.90;;;;;;5090890;28;20412;-73
2023/08/12 09:12:47;;;;;;;12.43;6.13;;;29.70;99.90;;;;;;5093546;27;20784;-73
2023/08/12 09:15:16;;;;;;;14.38;6.20;;;29.80;99.90;;;;;;5098952;27;20517;-73
2023/08/12 09:17:42;;;;;;;12.00;6.47;;;29.80;99.90;;;;;;5106635;27;20405;-73
2023/08/12 09:20:11;;;;;;;11.80;6.35;;;29.90;99.90;;;;;;5093251;27;20817;-73
2023/08/12 09:22:41;;;;;;;12.80;6.68;;;30.00;99.90;;;;;;5096641;27;20451;-73
2023/08/12 09:25:10;;;;;;;11.90;6.10;;;30.10;99.90;;;;;;5093585;27;20511;-73
2023/08/12 09:27:39;;;;;;;12.57;6.45;;;30.20;99.90;;;;;;5096197;27;20410;-73
2023/08/12 09:30:08;;;;;;;11.77;6.10;;;30.20;99.90;;;;;;5095685;27;20450;-73
2023/08/12 09:32:34;;;;;;;9.80;5.88;;;30.30;99.90;;;;;;5090016;28;20443;-73
2023/08/12 09:35:03;;;;;;;10.98;6.13;;;30.30;99.90;;;;;;5090739;27;21524;-73
2023/08/12 09:37:29;;;;;;;8.50;5.93;;;30.40;99.90;;;;;;5119362;27;20402;-73
2023/08/12 09:39:58;;;;;;;9.18;5.93;;;30.50;99.90;;;;;;5089121;27;20404;-73
2023/08/12 09:42:24;;;;;;;11.80;6.07;;;30.60;99.90;;;;;;5104770;27;20404;-73
2023/08/12 09:44:51;;;;;;;11.63;6.30;;;30.60;99.90;;;;;;5120266;27;20851;-73
2023/08/12 09:47:18;;;;;;;11.95;6.40;;;30.70;99.90;;;;;;5102216;27;20471;-73
2023/08/12 09:49:44;;;;;;;11.82;6.43;;;30.70;99.90;;;;;;5089129;28;20421;-73
2023/08/12 09:52:13;;;;;;;9.50;5.97;;;30.80;99.90;;;;;;5084639;27;20467;-73
2023/08/12 09:54:41;;;;;;;9.10;5.95;;;30.90;99.90;;;;;;5094754;27;20424;-73
2023/08/12 09:57:11;;;;;;;9.75;6.18;;;31.00;99.90;;;;;;5090661;28;20420;-73
2023/08/12 09:59:41;;;;;;;11.00;6.00;;;31.00;99.90;;;;;;5096451;27;20404;-73
2023/08/12 10:02:18;;;;;;;10.05;6.22;;;31.10;99.90;;;;;;5101557;27;20479;-73
2023/08/12 10:04:50;;;;;;;10.30;5.80;;;31.20;99.90;;;;;;5099981;27;20963;-73
2023/08/12 10:07:19;;;;;;;9.55;6.03;;;31.20;99.90;;;;;;5097433;27;20929;-73
2023/08/12 10:09:46;;;;;;;11.90;6.38;;;31.20;99.90;;;;;;5095695;27;20875;-73
2023/08/12 10:12:13;;;;;;;11.03;6.20;;;31.30;99.90;;;;;;5098146;27;20414;-73
2023/08/12 10:14:39;;;;;;;10.35;6.07;;;31.30;99.90;;;;;;5096715;27;21027;-73
2023/08/12 10:17:06;;;;;;;11.38;6.10;;;31.30;99.90;;;;;;5096073;27;20414;-73
2023/08/12 10:19:34;;;;;;;11.27;6.13;;;31.40;99.90;;;;;;5097130;27;20453;-73
2023/08/12 10:22:03;;;;;;;10.40;6.22;;;31.40;99.90;;;;;;5097044;28;20486;-73
2023/08/12 10:24:31;;;;;;;8.35;6.05;;;31.40;99.90;;;;;;5094682;28;20464;-73
2023/08/12 10:26:57;;;;;;;10.95;6.05;;;31.40;99.90;;;;;;5095384;28;20412;-73
2023/08/12 10:29:26;;;;;;;11.35;6.07;;;31.40;99.90;;;;;;5122654;27;20405;-73
2023/08/12 10:31:53;;;;;;;10.73;6.40;;;31.40;99.90;;;;;;5092377;27;20406;-73
2023/08/12 10:34:24;;;;;;;10.38;5.97;;;31.40;99.90;;;;;;5091015;27;20408;-73
2023/08/12 10:37:02;;;;;;;8.75;6.18;;;31.40;99.90;;;;;;5092491;28;20408;-73
2023/08/12 10:39:37;;;;;;;11.45;5.90;;;31.30;99.90;;;;;;5091693;28;20419;-73
2023/08/12 10:42:05;;;;;;;9.40;6.00;;;31.30;99.90;;;;;;5096698;28;20819;-73
2023/08/12 10:44:51;;;;;;;11.80;5.90;;;31.20;99.90;;;;;;5091474;27;20427;-73
2023/08/12 10:47:18;;;;;;;10.45;5.85;;;31.20;99.90;;;;;;5096887;28;20493;-73
2023/08/12 10:49:49;;;;;;;11.63;6.03;;;31.20;99.90;;;;;;5092691;28;20449;-73
2023/08/12 10:52:34;;;;;;;13.65;5.78;;;31.10;99.90;;;;;;5081215;28;20414;-73
2023/08/12 10:55:24;;;;;;;10.93;6.30;;;31.10;99.90;;;;;;5099142;28;20744;-73
2023/08/12 10:57:58;;;;;;;9.55;5.80;;;31.00;99.90;;;;;;5097228;28;20420;-73
2023/08/12 11:00:29;;;;;;;9.65;6.10;;;31.00;99.90;;;;;;5098191;28;20406;-73
2023/08/12 11:02:59;;;;;;;9.18;5.90;;;30.90;99.90;;;;;;5094017;28;20412;-73
2023/08/12 11:05:37;;;;;;;9.25;6.00;;;31.00;99.90;;;;;;5097266;28;20574;-73
2023/08/12 11:08:06;;;;;;;10.85;5.78;;;31.00;99.90;;;;;;5094932;28;20412;-73
2023/08/12 11:10:34;;;;;;;9.88;6.10;;;30.90;99.90;;;;;;5097906;28;20408;-73
2023/08/12 11:13:03;;;;;;;10.85;5.60;;;30.90;99.90;;;;;;5100697;28;21425;-73
2023/08/12 11:15:41;;;;;;;11.63;6.03;;;30.90;99.90;;;;;;5096587;28;20935;-73
2023/08/12 11:18:12;;;;;;;10.85;5.80;;;30.90;99.90;;;;;;5098460;28;20495;-73
2023/08/12 11:20:39;;;;;;;9.70;6.17;;;30.90;99.90;;;;;;5096572;28;20420;-73
2023/08/12 11:23:08;;;;;;;10.77;5.97;;;30.90;99.90;;;;;;5093509;28;20512;-73
2023/08/12 11:25:37;;;;;;;8.95;5.60;;;30.80;99.90;;;;;;5096103;28;20447;-73
2023/08/12 11:28:06;;;;;;;10.00;5.72;;;30.90;99.90;;;;;;5098124;27;20420;-73
2023/08/12 11:30:32;;;;;;;11.20;6.40;;;30.80;99.90;;;;;;5099664;27;20530;-73
2023/08/12 11:33:01;;;;;;;12.63;6.00;;;30.90;99.90;;;;;;5098671;27;20401;-73
2023/08/12 11:35:28;;;;;;;8.02;5.57;;;30.90;99.90;;;;;;5106021;27;20400;-73
2023/08/12 11:37:59;;;;;;;8.55;5.97;;;30.90;99.90;;;;;;5098073;27;20408;-73
2023/08/12 11:40:28;;;;;;;7.93;5.70;;;30.90;99.90;;;;;;5096423;27;20433;-73
2023/08/12 11:42:55;;;;;;;10.32;5.40;;;30.90;99.90;;;;;;5098135;27;20408;-73
2023/08/12 11:45:25;;;;;;;10.23;5.90;;;30.90;99.90;;;;;;5103223;27;20996;-73
2023/08/12 11:47:52;;;;;;;9.40;5.88;;;30.90;99.90;;;;;;5095854;27;20404;-73
2023/08/12 11:50:21;;;;;;;10.18;5.90;;;30.90;99.90;;;;;;5099517;27;20420;-73
2023/08/12 11:52:49;;;;;;;8.97;5.53;;;30.80;99.90;;;;;;5100788;27;20981;-73
2023/08/12 11:55:16;;;;;;;8.90;5.78;;;30.90;99.90;;;;;;5099850;27;20917;-73
2023/08/12 11:57:46;;;;;;;8.63;5.70;;;30.90;99.90;;;;;;5099411;27;20400;-73
2023/08/12 12:00:14;;;;;;;8.35;5.55;;;30.80;99.90;;;;;;5101203;27;20418;-73
2023/08/12 12:02:49;;;;;;;10.63;6.00;;;30.90;99.90;;;;;;5097917;27;20414;-74
2023/08/12 12:05:37;;;;;;;10.32;5.60;;;30.90;99.90;;;;;;5096395;27;20453;-74
2023/08/12 12:08:08;;;;;;;7.80;5.20;;;30.90;99.90;;;;;;5088825;27;20766;-74
2023/08/12 12:10:35;;;;;;;9.68;5.80;;;30.90;99.90;;;;;;5102262;27;20452;-74
2023/08/12 12:13:04;;;;;;;8.52;5.70;;;30.90;99.90;;;;;;5099355;27;20418;-74
2023/08/12 12:15:37;;;;;;;8.47;5.67;;;30.90;99.90;;;;;;5095287;27;20412;-73
2023/08/12 12:18:12;;;;;;;8.65;5.70;;;30.90;99.90;;;;;;5107356;27;20476;-73
2023/08/12 12:20:59;;;;;;;8.30;5.57;;;30.90;99.90;;;;;;5097089;27;20417;-74
2023/08/12 12:23:30;;;;;;;6.20;5.10;;;30.90;99.90;;;;;;5095173;27;20767;-73
2023/08/12 12:26:02;;;;;;;9.27;5.50;;;30.80;99.90;;;;;;5079521;27;20973;-74
2023/08/12 12:28:29;;;;;;;10.20;5.53;;;30.90;99.90;;;;;;5091651;27;20516;-73
2023/08/12 12:30:55;;;;;;;7.20;5.50;;;30.80;99.90;;;;;;5095653;27;20412;-74
2023/08/12 12:33:22;;;;;;;8.38;5.32;;;30.90;99.90;;;;;;5094715;27;20445;-74
2023/08/12 12:35:48;;;;;;;9.50;5.47;;;30.90;99.90;;;;;;5096560;27;21021;-74
2023/08/12 12:38:14;;;;;;;8.07;5.40;;;30.90;99.90;;;;;;5099811;27;20413;-73
2023/08/12 12:40:41;;;;;;;8.85;5.70;;;30.90;99.90;;;;;;5089169;27;21398;-74
2023/08/12 12:43:07;;;;;;;7.80;5.50;;;30.90;99.90;;;;;;5096554;27;20504;-74
2023/08/12 12:45:33;;;;;;;8.63;5.72;;;30.90;99.90;;;;;;5097688;27;20490;-74